sensor_id;sensor_type;location;lat;lon;timestamp;P1;durP1;ratioP1;P2;durP2;ratioP2
54897;SDS011;40800;52.704;6.398;2024-01-15T00:00:38;18.38;;;12.00;;
54897;SDS011;40800;52.704;6.398;2024-01-15T00:03:04;19.63;;;12.50;;
54897;SDS011;40800;52.704;6.398;2024-01-15T00:05:30;18.00;;;12.40;;
54897;SDS011;40800;52.704;6.398;2024-01-15T00:07:56;18.27;;;12.85;;
54897;SDS011;40800;52.704;6.398;2024-01-15T00:10:21;19.25;;;12.48;;
54897;SDS011;40800;52.704;6.398;2024-01-15T00:12:47;18.50;;;11.93;;
54897;SDS011;40800;52.704;6.398;2024-01-15T00:15:13;16.83;;;11.38;;
54897;SDS011;40800;52.704;6.398;2024-01-15T00:17:39;20.10;;;12.40;;
54897;SDS011;40800;52.704;6.398;2024-01-15T00:20:04;16.95;;;12.00;;
54897;SDS011;40800;52.704;6.398;2024-01-15T00:22:31;25.45;;;12.75;;
54897;SDS011;40800;52.704;6.398;2024-01-15T00:24:57;15.80;;;12.43;;
54897;SDS011;40800;52.704;6.398;2024-01-15T00:27:22;18.35;;;12.50;;
54897;SDS011;40800;52.704;6.398;2024-01-15T00:29:48;17.05;;;12.55;;
54897;SDS011;40800;52.704;6.398;2024-01-15T00:32:16;19.35;;;12.57;;
54897;SDS011;40800;52.704;6.398;2024-01-15T00:34:42;14.45;;;12.10;;
54897;SDS011;40800;52.704;6.398;2024-01-15T00:37:07;16.20;;;11.85;;
54897;SDS011;40800;52.704;6.398;2024-01-15T00:39:33;14.25;;;12.18;;
54897;SDS011;40800;52.704;6.398;2024-01-15T00:41:58;16.27;;;12.63;;
54897;SDS011;40800;52.704;6.398;2024-01-15T00:44:24;13.30;;;11.80;;
54897;SDS011;40800;52.704;6.398;2024-01-15T00:46:50;18.33;;;12.25;;
54897;SDS011;40800;52.704;6.398;2024-01-15T00:49:15;19.67;;;12.32;;
54897;SDS011;40800;52.704;6.398;2024-01-15T00:51:41;14.43;;;12.20;;
54897;SDS011;40800;52.704;6.398;2024-01-15T00:54:07;18.67;;;13.07;;
54897;SDS011;40800;52.704;6.398;2024-01-15T00:56:32;22.05;;;13.43;;
54897;SDS011;40800;52.704;6.398;2024-01-15T00:58:58;15.60;;;12.73;;
54897;SDS011;40800;52.704;6.398;2024-01-15T01:01:24;20.33;;;13.10;;
54897;SDS011;40800;52.704;6.398;2024-01-15T01:03:50;14.63;;;11.98;;
54897;SDS011;40800;52.704;6.398;2024-01-15T01:06:15;15.30;;;12.35;;
54897;SDS011;40800;52.704;6.398;2024-01-15T01:08:41;16.52;;;12.00;;
54897;SDS011;40800;52.704;6.398;2024-01-15T01:11:07;15.52;;;12.50;;
54897;SDS011;40800;52.704;6.398;2024-01-15T01:13:32;14.82;;;11.77;;
54897;SDS011;40800;52.704;6.398;2024-01-15T01:15:58;12.95;;;11.65;;
54897;SDS011;40800;52.704;6.398;2024-01-15T01:18:23;15.63;;;11.32;;
54897;SDS011;40800;52.704;6.398;2024-01-15T01:20:49;14.80;;;10.95;;
54897;SDS011;40800;52.704;6.398;2024-01-15T01:23:16;19.00;;;11.50;;
54897;SDS011;40800;52.704;6.398;2024-01-15T01:25:41;17.85;;;12.32;;
54897;SDS011;40800;52.704;6.398;2024-01-15T01:28:07;14.40;;;11.80;;
54897;SDS011;40800;52.704;6.398;2024-01-15T01:30:32;19.10;;;11.45;;
54897;SDS011;40800;52.704;6.398;2024-01-15T01:32:58;15.02;;;11.60;;
54897;SDS011;40800;52.704;6.398;2024-01-15T01:35:23;18.10;;;12.13;;
54897;SDS011;40800;52.704;6.398;2024-01-15T01:37:49;14.60;;;11.82;;
54897;SDS011;40800;52.704;6.398;2024-01-15T01:40:15;17.77;;;11.98;;
54897;SDS011;40800;52.704;6.398;2024-01-15T01:42:41;14.95;;;11.20;;
54897;SDS011;40800;52.704;6.398;2024-01-15T01:45:06;18.70;;;13.13;;
54897;SDS011;40800;52.704;6.398;2024-01-15T01:47:32;15.93;;;13.23;;
54897;SDS011;40800;52.704;6.398;2024-01-15T01:49:58;15.32;;;13.52;;
54897;SDS011;40800;52.704;6.398;2024-01-15T01:52:23;17.25;;;14.82;;
54897;SDS011;40800;52.704;6.398;2024-01-15T01:54:49;17.08;;;15.60;;
54897;SDS011;40800;52.704;6.398;2024-01-15T01:57:16;17.70;;;16.20;;
54897;SDS011;40800;52.704;6.398;2024-01-15T01:59:43;18.00;;;16.60;;
54897;SDS011;40800;52.704;6.398;2024-01-15T02:04:36;18.38;;;16.90;;
54897;SDS011;40800;52.704;6.398;2024-01-15T02:07:03;18.95;;;17.73;;
54897;SDS011;40800;52.704;6.398;2024-01-15T02:09:29;19.45;;;17.80;;
54897;SDS011;40800;52.704;6.398;2024-01-15T02:11:55;19.48;;;17.95;;
54897;SDS011;40800;52.704;6.398;2024-01-15T02:14:20;19.35;;;18.05;;
54897;SDS011;40800;52.704;6.398;2024-01-15T02:16:46;19.43;;;18.13;;
54897;SDS011;40800;52.704;6.398;2024-01-15T02:19:15;19.70;;;18.30;;
54897;SDS011;40800;52.704;6.398;2024-01-15T02:21:44;20.98;;;19.50;;
54897;SDS011;40800;52.704;6.398;2024-01-15T02:24:10;21.13;;;19.70;;
54897;SDS011;40800;52.704;6.398;2024-01-15T02:26:36;22.17;;;20.70;;
54897;SDS011;40800;52.704;6.398;2024-01-15T02:29:03;21.42;;;19.67;;
54897;SDS011;40800;52.704;6.398;2024-01-15T02:31:31;20.95;;;19.70;;
54897;SDS011;40800;52.704;6.398;2024-01-15T02:33:57;20.85;;;19.45;;
54897;SDS011;40800;52.704;6.398;2024-01-15T02:36:23;21.35;;;19.98;;
54897;SDS011;40800;52.704;6.398;2024-01-15T02:38:48;21.42;;;19.88;;
54897;SDS011;40800;52.704;6.398;2024-01-15T02:41:14;21.20;;;19.75;;
54897;SDS011;40800;52.704;6.398;2024-01-15T02:43:39;20.65;;;19.33;;
54897;SDS011;40800;52.704;6.398;2024-01-15T02:46:06;20.30;;;18.90;;
54897;SDS011;40800;52.704;6.398;2024-01-15T02:48:31;20.50;;;19.00;;
54897;SDS011;40800;52.704;6.398;2024-01-15T02:50:58;20.60;;;19.17;;
54897;SDS011;40800;52.704;6.398;2024-01-15T02:53:24;20.25;;;18.77;;
54897;SDS011;40800;52.704;6.398;2024-01-15T02:55:49;20.40;;;19.00;;
54897;SDS011;40800;52.704;6.398;2024-01-15T02:58:15;20.08;;;18.75;;
54897;SDS011;40800;52.704;6.398;2024-01-15T03:00:40;19.48;;;18.13;;
54897;SDS011;40800;52.704;6.398;2024-01-15T03:03:06;19.67;;;18.38;;
54897;SDS011;40800;52.704;6.398;2024-01-15T03:05:31;19.08;;;17.95;;
54897;SDS011;40800;52.704;6.398;2024-01-15T03:07:57;19.15;;;17.65;;
54897;SDS011;40800;52.704;6.398;2024-01-15T03:10:22;19.60;;;18.33;;
54897;SDS011;40800;52.704;6.398;2024-01-15T03:12:48;20.55;;;19.25;;
54897;SDS011;40800;52.704;6.398;2024-01-15T03:15:13;19.88;;;18.65;;
54897;SDS011;40800;52.704;6.398;2024-01-15T03:17:40;19.52;;;18.27;;
54897;SDS011;40800;52.704;6.398;2024-01-15T03:20:07;20.60;;;19.00;;
54897;SDS011;40800;52.704;6.398;2024-01-15T03:22:33;21.57;;;19.87;;
54897;SDS011;40800;52.704;6.398;2024-01-15T03:24:59;21.63;;;19.95;;
54897;SDS011;40800;52.704;6.398;2024-01-15T03:27:24;21.90;;;20.10;;
54897;SDS011;40800;52.704;6.398;2024-01-15T03:29:51;22.10;;;20.20;;
54897;SDS011;40800;52.704;6.398;2024-01-15T03:32:16;21.33;;;19.55;;
54897;SDS011;40800;52.704;6.398;2024-01-15T03:34:42;21.20;;;19.65;;
54897;SDS011;40800;52.704;6.398;2024-01-15T03:37:08;22.33;;;20.42;;
54897;SDS011;40800;52.704;6.398;2024-01-15T03:39:34;22.17;;;20.27;;
54897;SDS011;40800;52.704;6.398;2024-01-15T03:41:59;21.35;;;19.77;;
54897;SDS011;40800;52.704;6.398;2024-01-15T03:44:25;22.02;;;20.33;;
54897;SDS011;40800;52.704;6.398;2024-01-15T03:46:50;22.13;;;20.33;;
54897;SDS011;40800;52.704;6.398;2024-01-15T03:49:16;21.65;;;19.45;;
54897;SDS011;40800;52.704;6.398;2024-01-15T03:51:42;22.17;;;19.83;;
54897;SDS011;40800;52.704;6.398;2024-01-15T03:54:07;22.65;;;20.30;;
54897;SDS011;40800;52.704;6.398;2024-01-15T03:56:33;23.30;;;21.20;;
54897;SDS011;40800;52.704;6.398;2024-01-15T03:58:58;23.83;;;20.83;;
54897;SDS011;40800;52.704;6.398;2024-01-15T04:01:24;23.67;;;21.52;;
54897;SDS011;40800;52.704;6.398;2024-01-15T04:03:49;23.67;;;21.45;;
54897;SDS011;40800;52.704;6.398;2024-01-15T04:06:15;24.45;;;21.88;;
54897;SDS011;40800;52.704;6.398;2024-01-15T04:08:40;23.40;;;21.13;;
54897;SDS011;40800;52.704;6.398;2024-01-15T04:11:06;25.63;;;21.08;;
54897;SDS011;40800;52.704;6.398;2024-01-15T04:13:32;23.20;;;21.15;;
54897;SDS011;40800;52.704;6.398;2024-01-15T04:15:58;23.07;;;20.30;;
54897;SDS011;40800;52.704;6.398;2024-01-15T04:18:25;22.38;;;20.13;;
54897;SDS011;40800;52.704;6.398;2024-01-15T04:20:51;21.15;;;19.08;;
54897;SDS011;40800;52.704;6.398;2024-01-15T04:23:16;22.08;;;19.77;;
54897;SDS011;40800;52.704;6.398;2024-01-15T04:25:42;21.40;;;19.42;;
54897;SDS011;40800;52.704;6.398;2024-01-15T04:28:08;21.77;;;20.02;;
54897;SDS011;40800;52.704;6.398;2024-01-15T04:30:34;22.23;;;20.03;;
54897;SDS011;40800;52.704;6.398;2024-01-15T04:32:59;21.35;;;19.50;;
54897;SDS011;40800;52.704;6.398;2024-01-15T04:35:25;21.35;;;19.70;;
54897;SDS011;40800;52.704;6.398;2024-01-15T04:37:51;21.77;;;19.67;;
54897;SDS011;40800;52.704;6.398;2024-01-15T04:40:17;20.80;;;19.23;;
54897;SDS011;40800;52.704;6.398;2024-01-15T04:42:42;21.27;;;19.58;;
54897;SDS011;40800;52.704;6.398;2024-01-15T04:45:11;20.77;;;19.23;;
54897;SDS011;40800;52.704;6.398;2024-01-15T04:47:37;20.33;;;18.73;;
54897;SDS011;40800;52.704;6.398;2024-01-15T04:50:03;20.13;;;18.55;;
54897;SDS011;40800;52.704;6.398;2024-01-15T04:54:55;21.00;;;19.35;;
54897;SDS011;40800;52.704;6.398;2024-01-15T04:57:20;22.15;;;20.40;;
54897;SDS011;40800;52.704;6.398;2024-01-15T04:59:46;22.67;;;21.00;;
54897;SDS011;40800;52.704;6.398;2024-01-15T05:02:11;23.48;;;21.85;;
54897;SDS011;40800;52.704;6.398;2024-01-15T05:04:37;24.30;;;22.42;;
54897;SDS011;40800;52.704;6.398;2024-01-15T05:07:03;23.58;;;22.17;;
54897;SDS011;40800;52.704;6.398;2024-01-15T05:09:28;23.48;;;21.77;;
54897;SDS011;40800;52.704;6.398;2024-01-15T05:11:54;23.95;;;22.13;;
54897;SDS011;40800;52.704;6.398;2024-01-15T05:14:19;24.73;;;22.70;;
54897;SDS011;40800;52.704;6.398;2024-01-15T05:16:51;24.50;;;22.70;;
54897;SDS011;40800;52.704;6.398;2024-01-15T05:19:17;24.85;;;23.38;;
54897;SDS011;40800;52.704;6.398;2024-01-15T05:21:43;25.65;;;23.83;;
54897;SDS011;40800;52.704;6.398;2024-01-15T05:24:08;24.33;;;22.77;;
54897;SDS011;40800;52.704;6.398;2024-01-15T05:26:34;25.17;;;23.50;;
54897;SDS011;40800;52.704;6.398;2024-01-15T05:28:59;24.17;;;22.80;;
54897;SDS011;40800;52.704;6.398;2024-01-15T05:31:25;25.15;;;23.38;;
54897;SDS011;40800;52.704;6.398;2024-01-15T05:33:51;24.40;;;22.90;;
54897;SDS011;40800;52.704;6.398;2024-01-15T05:36:16;25.10;;;23.40;;
54897;SDS011;40800;52.704;6.398;2024-01-15T05:38:42;24.75;;;23.10;;
54897;SDS011;40800;52.704;6.398;2024-01-15T05:41:07;25.02;;;23.35;;
54897;SDS011;40800;52.704;6.398;2024-01-15T05:43:33;25.52;;;23.70;;
54897;SDS011;40800;52.704;6.398;2024-01-15T05:45:59;25.02;;;23.30;;
54897;SDS011;40800;52.704;6.398;2024-01-15T05:48:24;25.98;;;23.70;;
54897;SDS011;40800;52.704;6.398;2024-01-15T05:50:50;26.17;;;24.00;;
54897;SDS011;40800;52.704;6.398;2024-01-15T05:53:15;26.00;;;24.02;;
54897;SDS011;40800;52.704;6.398;2024-01-15T05:55:41;27.08;;;25.00;;
54897;SDS011;40800;52.704;6.398;2024-01-15T05:58:07;25.92;;;23.90;;
54897;SDS011;40800;52.704;6.398;2024-01-15T06:00:32;26.30;;;24.60;;
54897;SDS011;40800;52.704;6.398;2024-01-15T06:03:00;26.27;;;24.38;;
54897;SDS011;40800;52.704;6.398;2024-01-15T06:05:25;24.80;;;22.80;;
54897;SDS011;40800;52.704;6.398;2024-01-15T06:07:51;23.83;;;22.13;;
54897;SDS011;40800;52.704;6.398;2024-01-15T06:10:17;23.67;;;21.65;;
54897;SDS011;40800;52.704;6.398;2024-01-15T06:12:45;23.60;;;21.90;;
54897;SDS011;40800;52.704;6.398;2024-01-15T06:15:11;23.75;;;21.98;;
54897;SDS011;40800;52.704;6.398;2024-01-15T06:17:37;24.23;;;22.17;;
54897;SDS011;40800;52.704;6.398;2024-01-15T06:20:03;23.92;;;22.13;;
54897;SDS011;40800;52.704;6.398;2024-01-15T06:22:29;23.40;;;21.90;;
54897;SDS011;40800;52.704;6.398;2024-01-15T06:24:54;23.27;;;21.83;;
54897;SDS011;40800;52.704;6.398;2024-01-15T06:27:20;24.13;;;22.52;;
54897;SDS011;40800;52.704;6.398;2024-01-15T06:29:46;23.55;;;22.08;;
54897;SDS011;40800;52.704;6.398;2024-01-15T06:32:12;24.50;;;22.90;;
54897;SDS011;40800;52.704;6.398;2024-01-15T06:34:38;26.05;;;24.30;;
54897;SDS011;40800;52.704;6.398;2024-01-15T06:37:04;24.35;;;22.75;;
54897;SDS011;40800;52.704;6.398;2024-01-15T06:39:29;25.70;;;24.15;;
54897;SDS011;40800;52.704;6.398;2024-01-15T06:41:55;26.08;;;24.67;;
54897;SDS011;40800;52.704;6.398;2024-01-15T06:44:21;25.13;;;23.52;;
54897;SDS011;40800;52.704;6.398;2024-01-15T06:46:46;26.17;;;24.48;;
54897;SDS011;40800;52.704;6.398;2024-01-15T06:49:12;25.98;;;24.45;;
54897;SDS011;40800;52.704;6.398;2024-01-15T06:51:38;25.00;;;23.20;;
54897;SDS011;40800;52.704;6.398;2024-01-15T06:54:04;23.95;;;22.05;;
54897;SDS011;40800;52.704;6.398;2024-01-15T06:56:30;23.73;;;21.98;;
54897;SDS011;40800;52.704;6.398;2024-01-15T06:58:56;23.65;;;22.05;;
54897;SDS011;40800;52.704;6.398;2024-01-15T07:01:22;23.70;;;22.00;;
54897;SDS011;40800;52.704;6.398;2024-01-15T07:03:47;23.65;;;21.92;;
54897;SDS011;40800;52.704;6.398;2024-01-15T07:06:13;24.67;;;22.58;;
54897;SDS011;40800;52.704;6.398;2024-01-15T07:08:39;25.20;;;22.75;;
54897;SDS011;40800;52.704;6.398;2024-01-15T07:11:05;24.23;;;22.52;;
54897;SDS011;40800;52.704;6.398;2024-01-15T07:13:31;23.05;;;21.42;;
54897;SDS011;40800;52.704;6.398;2024-01-15T07:15:57;24.45;;;22.75;;
54897;SDS011;40800;52.704;6.398;2024-01-15T07:18:23;24.05;;;22.27;;
54897;SDS011;40800;52.704;6.398;2024-01-15T07:20:48;23.73;;;21.90;;
54897;SDS011;40800;52.704;6.398;2024-01-15T07:23:14;23.27;;;21.58;;
54897;SDS011;40800;52.704;6.398;2024-01-15T07:25:40;23.27;;;21.58;;
54897;SDS011;40800;52.704;6.398;2024-01-15T07:28:05;22.85;;;20.92;;
54897;SDS011;40800;52.704;6.398;2024-01-15T07:30:31;24.52;;;22.50;;
54897;SDS011;40800;52.704;6.398;2024-01-15T07:32:56;23.88;;;22.08;;
54897;SDS011;40800;52.704;6.398;2024-01-15T07:35:22;23.60;;;21.42;;
54897;SDS011;40800;52.704;6.398;2024-01-15T07:37:48;23.92;;;21.65;;
54897;SDS011;40800;52.704;6.398;2024-01-15T07:40:13;22.42;;;20.77;;
54897;SDS011;40800;52.704;6.398;2024-01-15T07:42:39;23.75;;;21.73;;
54897;SDS011;40800;52.704;6.398;2024-01-15T07:45:05;23.20;;;21.25;;
54897;SDS011;40800;52.704;6.398;2024-01-15T07:47:31;22.85;;;20.90;;
54897;SDS011;40800;52.704;6.398;2024-01-15T07:49:57;22.38;;;20.42;;
54897;SDS011;40800;52.704;6.398;2024-01-15T07:52:22;26.77;;;24.55;;
54897;SDS011;40800;52.704;6.398;2024-01-15T07:54:48;27.52;;;25.50;;
54897;SDS011;40800;52.704;6.398;2024-01-15T07:57:13;28.02;;;26.08;;
54897;SDS011;40800;52.704;6.398;2024-01-15T07:59:39;41.30;;;38.35;;
54897;SDS011;40800;52.704;6.398;2024-01-15T08:02:05;23.95;;;21.95;;
54897;SDS011;40800;52.704;6.398;2024-01-15T08:04:30;23.25;;;21.55;;
54897;SDS011;40800;52.704;6.398;2024-01-15T08:06:56;24.52;;;22.52;;
54897;SDS011;40800;52.704;6.398;2024-01-15T08:09:22;24.23;;;22.15;;
54897;SDS011;40800;52.704;6.398;2024-01-15T08:11:48;24.73;;;22.58;;
54897;SDS011;40800;52.704;6.398;2024-01-15T08:14:14;25.43;;;23.03;;
54897;SDS011;40800;52.704;6.398;2024-01-15T08:16:40;25.20;;;22.80;;
54897;SDS011;40800;52.704;6.398;2024-01-15T08:19:06;24.35;;;22.38;;
54897;SDS011;40800;52.704;6.398;2024-01-15T08:21:31;25.13;;;22.92;;
54897;SDS011;40800;52.704;6.398;2024-01-15T08:23:57;25.08;;;22.75;;
54897;SDS011;40800;52.704;6.398;2024-01-15T08:26:24;25.38;;;23.45;;
54897;SDS011;40800;52.704;6.398;2024-01-15T08:28:50;24.27;;;22.13;;
54897;SDS011;40800;52.704;6.398;2024-01-15T08:31:16;24.52;;;22.58;;
54897;SDS011;40800;52.704;6.398;2024-01-15T08:33:42;23.85;;;21.80;;
54897;SDS011;40800;52.704;6.398;2024-01-15T08:36:08;23.45;;;21.70;;
54897;SDS011;40800;52.704;6.398;2024-01-15T08:38:34;23.40;;;21.17;;
54897;SDS011;40800;52.704;6.398;2024-01-15T08:41:00;22.17;;;20.45;;
54897;SDS011;40800;52.704;6.398;2024-01-15T08:43:26;22.30;;;20.23;;
54897;SDS011;40800;52.704;6.398;2024-01-15T08:45:52;21.10;;;19.40;;
54897;SDS011;40800;52.704;6.398;2024-01-15T08:48:18;20.55;;;19.15;;
54897;SDS011;40800;52.704;6.398;2024-01-15T08:50:44;20.73;;;18.88;;
54897;SDS011;40800;52.704;6.398;2024-01-15T08:53:12;20.58;;;18.90;;
54897;SDS011;40800;52.704;6.398;2024-01-15T08:55:38;20.73;;;19.17;;
54897;SDS011;40800;52.704;6.398;2024-01-15T08:58:04;20.20;;;18.33;;
54897;SDS011;40800;52.704;6.398;2024-01-15T09:00:31;21.30;;;19.65;;
54897;SDS011;40800;52.704;6.398;2024-01-15T09:02:56;21.90;;;19.83;;
54897;SDS011;40800;52.704;6.398;2024-01-15T09:05:22;19.67;;;18.25;;
54897;SDS011;40800;52.704;6.398;2024-01-15T09:07:48;22.35;;;20.63;;
54897;SDS011;40800;52.704;6.398;2024-01-15T09:10:16;23.17;;;21.35;;
54897;SDS011;40800;52.704;6.398;2024-01-15T09:12:41;23.77;;;22.08;;
54897;SDS011;40800;52.704;6.398;2024-01-15T09:15:07;24.38;;;22.70;;
54897;SDS011;40800;52.704;6.398;2024-01-15T09:17:33;24.17;;;22.33;;
54897;SDS011;40800;52.704;6.398;2024-01-15T09:19:59;24.40;;;22.73;;
54897;SDS011;40800;52.704;6.398;2024-01-15T09:22:25;24.47;;;22.80;;
54897;SDS011;40800;52.704;6.398;2024-01-15T09:24:50;24.17;;;22.45;;
54897;SDS011;40800;52.704;6.398;2024-01-15T09:27:16;24.15;;;22.30;;
54897;SDS011;40800;52.704;6.398;2024-01-15T09:29:42;23.90;;;21.88;;
54897;SDS011;40800;52.704;6.398;2024-01-15T09:32:09;23.70;;;21.60;;
54897;SDS011;40800;52.704;6.398;2024-01-15T09:34:34;23.67;;;21.25;;
54897;SDS011;40800;52.704;6.398;2024-01-15T09:37:00;23.02;;;21.23;;
54897;SDS011;40800;52.704;6.398;2024-01-15T09:39:26;22.88;;;20.77;;
54897;SDS011;40800;52.704;6.398;2024-01-15T09:41:52;21.60;;;19.77;;
54897;SDS011;40800;52.704;6.398;2024-01-15T09:44:19;22.60;;;20.45;;
54897;SDS011;40800;52.704;6.398;2024-01-15T09:46:46;20.45;;;19.00;;
54897;SDS011;40800;52.704;6.398;2024-01-15T09:49:14;20.63;;;19.10;;
54897;SDS011;40800;52.704;6.398;2024-01-15T09:51:41;20.75;;;18.85;;
54897;SDS011;40800;52.704;6.398;2024-01-15T09:54:07;20.35;;;18.90;;
54897;SDS011;40800;52.704;6.398;2024-01-15T09:56:33;21.77;;;20.00;;
54897;SDS011;40800;52.704;6.398;2024-01-15T09:59:00;21.42;;;19.77;;
54897;SDS011;40800;52.704;6.398;2024-01-15T10:01:26;24.80;;;23.30;;
54897;SDS011;40800;52.704;6.398;2024-01-15T10:03:53;25.00;;;23.50;;
54897;SDS011;40800;52.704;6.398;2024-01-15T10:06:19;25.88;;;24.38;;
54897;SDS011;40800;52.704;6.398;2024-01-15T10:11:14;22.45;;;21.08;;
54897;SDS011;40800;52.704;6.398;2024-01-15T10:13:39;23.63;;;22.33;;
54897;SDS011;40800;52.704;6.398;2024-01-15T10:16:05;22.67;;;21.17;;
54897;SDS011;40800;52.704;6.398;2024-01-15T10:18:31;23.02;;;21.63;;
54897;SDS011;40800;52.704;6.398;2024-01-15T10:20:57;21.27;;;20.08;;
54897;SDS011;40800;52.704;6.398;2024-01-15T10:23:23;20.10;;;18.90;;
54897;SDS011;40800;52.704;6.398;2024-01-15T10:25:49;20.07;;;18.87;;
54897;SDS011;40800;52.704;6.398;2024-01-15T10:28:16;20.92;;;19.58;;
54897;SDS011;40800;52.704;6.398;2024-01-15T10:30:44;21.27;;;20.08;;
54897;SDS011;40800;52.704;6.398;2024-01-15T10:33:10;21.77;;;20.48;;
54897;SDS011;40800;52.704;6.398;2024-01-15T10:35:36;21.02;;;19.70;;
54897;SDS011;40800;52.704;6.398;2024-01-15T10:38:03;20.88;;;19.48;;
54897;SDS011;40800;52.704;6.398;2024-01-15T10:40:30;19.83;;;18.67;;
54897;SDS011;40800;52.704;6.398;2024-01-15T10:42:56;20.85;;;19.52;;
54897;SDS011;40800;52.704;6.398;2024-01-15T10:45:22;21.25;;;19.85;;
54897;SDS011;40800;52.704;6.398;2024-01-15T10:47:48;20.92;;;19.35;;
54897;SDS011;40800;52.704;6.398;2024-01-15T10:50:14;19.83;;;18.50;;
54897;SDS011;40800;52.704;6.398;2024-01-15T10:52:40;20.27;;;18.75;;
54897;SDS011;40800;52.704;6.398;2024-01-15T10:55:09;17.88;;;16.70;;
54897;SDS011;40800;52.704;6.398;2024-01-15T10:57:36;16.85;;;15.45;;
54897;SDS011;40800;52.704;6.398;2024-01-15T11:00:03;15.60;;;14.60;;
54897;SDS011;40800;52.704;6.398;2024-01-15T11:02:32;16.67;;;15.27;;
54897;SDS011;40800;52.704;6.398;2024-01-15T11:05:01;16.70;;;15.40;;
54897;SDS011;40800;52.704;6.398;2024-01-15T11:07:27;17.40;;;16.00;;
54897;SDS011;40800;52.704;6.398;2024-01-15T11:09:55;18.02;;;16.73;;
54897;SDS011;40800;52.704;6.398;2024-01-15T11:12:20;18.67;;;17.33;;
54897;SDS011;40800;52.704;6.398;2024-01-15T11:14:47;19.98;;;18.75;;
54897;SDS011;40800;52.704;6.398;2024-01-15T11:17:14;21.30;;;20.05;;
54897;SDS011;40800;52.704;6.398;2024-01-15T11:22:07;21.77;;;20.65;;
54897;SDS011;40800;52.704;6.398;2024-01-15T11:24:34;22.08;;;20.92;;
54897;SDS011;40800;52.704;6.398;2024-01-15T11:27:01;22.45;;;21.27;;
54897;SDS011;40800;52.704;6.398;2024-01-15T11:32:03;22.50;;;21.40;;
54897;SDS011;40800;52.704;6.398;2024-01-15T11:34:49;22.60;;;21.40;;
54897;SDS011;40800;52.704;6.398;2024-01-15T11:37:18;21.77;;;20.77;;
54897;SDS011;40800;52.704;6.398;2024-01-15T11:39:44;21.92;;;20.92;;
54897;SDS011;40800;52.704;6.398;2024-01-15T11:42:12;22.30;;;21.20;;
54897;SDS011;40800;52.704;6.398;2024-01-15T11:44:38;22.58;;;21.48;;
54897;SDS011;40800;52.704;6.398;2024-01-15T11:52:23;22.23;;;20.77;;
54897;SDS011;40800;52.704;6.398;2024-01-15T11:57:51;21.55;;;20.33;;
54897;SDS011;40800;52.704;6.398;2024-01-15T12:00:19;23.10;;;21.75;;
54897;SDS011;40800;52.704;6.398;2024-01-15T12:02:47;22.92;;;21.60;;
54897;SDS011;40800;52.704;6.398;2024-01-15T12:05:14;24.10;;;22.52;;
54897;SDS011;40800;52.704;6.398;2024-01-15T12:07:41;23.33;;;21.60;;
54897;SDS011;40800;52.704;6.398;2024-01-15T12:15:29;23.05;;;21.25;;
54897;SDS011;40800;52.704;6.398;2024-01-15T12:17:55;24.17;;;22.10;;
54897;SDS011;40800;52.704;6.398;2024-01-15T12:20:27;24.20;;;22.38;;
54897;SDS011;40800;52.704;6.398;2024-01-15T12:22:54;24.17;;;22.58;;
54897;SDS011;40800;52.704;6.398;2024-01-15T12:25:20;24.30;;;22.52;;
54897;SDS011;40800;52.704;6.398;2024-01-15T12:27:50;24.48;;;22.83;;
54897;SDS011;40800;52.704;6.398;2024-01-15T12:30:17;24.20;;;22.40;;
54897;SDS011;40800;52.704;6.398;2024-01-15T12:32:43;24.55;;;22.95;;
54897;SDS011;40800;52.704;6.398;2024-01-15T12:35:10;24.20;;;22.80;;
54897;SDS011;40800;52.704;6.398;2024-01-15T12:37:39;22.98;;;21.77;;
54897;SDS011;40800;52.704;6.398;2024-01-15T12:40:05;23.55;;;22.13;;
54897;SDS011;40800;52.704;6.398;2024-01-15T12:42:36;22.92;;;21.63;;
54897;SDS011;40800;52.704;6.398;2024-01-15T12:45:02;23.35;;;21.95;;
54897;SDS011;40800;52.704;6.398;2024-01-15T12:47:29;24.05;;;22.58;;
54897;SDS011;40800;52.704;6.398;2024-01-15T12:49:56;23.35;;;22.20;;
54897;SDS011;40800;52.704;6.398;2024-01-15T12:52:22;23.58;;;22.08;;
54897;SDS011;40800;52.704;6.398;2024-01-15T12:54:48;24.60;;;23.13;;
54897;SDS011;40800;52.704;6.398;2024-01-15T12:57:15;25.65;;;24.05;;
54897;SDS011;40800;52.704;6.398;2024-01-15T12:59:41;25.13;;;23.55;;
54897;SDS011;40800;52.704;6.398;2024-01-15T13:02:06;24.00;;;22.50;;
54897;SDS011;40800;52.704;6.398;2024-01-15T13:04:32;21.77;;;20.50;;
54897;SDS011;40800;52.704;6.398;2024-01-15T13:06:57;21.70;;;20.33;;
54897;SDS011;40800;52.704;6.398;2024-01-15T13:09:23;20.98;;;19.67;;
54897;SDS011;40800;52.704;6.398;2024-01-15T13:11:48;22.20;;;20.38;;
54897;SDS011;40800;52.704;6.398;2024-01-15T13:14:14;21.92;;;20.63;;
54897;SDS011;40800;52.704;6.398;2024-01-15T13:16:40;21.52;;;19.83;;
54897;SDS011;40800;52.704;6.398;2024-01-15T13:19:07;43.72;;;21.17;;
54897;SDS011;40800;52.704;6.398;2024-01-15T13:21:34;44.03;;;24.33;;
54897;SDS011;40800;52.704;6.398;2024-01-15T13:23:59;121.35;;;30.35;;
54897;SDS011;40800;52.704;6.398;2024-01-15T13:26:25;59.25;;;28.65;;
54897;SDS011;40800;52.704;6.398;2024-01-15T13:28:50;28.38;;;25.30;;
54897;SDS011;40800;52.704;6.398;2024-01-15T13:31:16;23.25;;;21.10;;
54897;SDS011;40800;52.704;6.398;2024-01-15T13:33:42;21.02;;;18.88;;
54897;SDS011;40800;52.704;6.398;2024-01-15T13:36:07;20.77;;;18.80;;
54897;SDS011;40800;52.704;6.398;2024-01-15T13:38:36;22.67;;;20.88;;
54897;SDS011;40800;52.704;6.398;2024-01-15T13:41:03;24.55;;;22.90;;
54897;SDS011;40800;52.704;6.398;2024-01-15T13:43:29;25.30;;;22.98;;
54897;SDS011;40800;52.704;6.398;2024-01-15T13:45:55;21.23;;;19.27;;
54897;SDS011;40800;52.704;6.398;2024-01-15T13:48:21;18.27;;;16.50;;
54897;SDS011;40800;52.704;6.398;2024-01-15T13:50:46;17.23;;;15.90;;
54897;SDS011;40800;52.704;6.398;2024-01-15T13:53:12;16.90;;;15.40;;
54897;SDS011;40800;52.704;6.398;2024-01-15T13:55:38;17.17;;;15.52;;
54897;SDS011;40800;52.704;6.398;2024-01-15T13:58:03;18.55;;;16.80;;
54897;SDS011;40800;52.704;6.398;2024-01-15T14:02:56;21.00;;;18.67;;
54897;SDS011;40800;52.704;6.398;2024-01-15T14:05:22;20.73;;;18.88;;
54897;SDS011;40800;52.704;6.398;2024-01-15T14:07:48;18.45;;;17.13;;
54897;SDS011;40800;52.704;6.398;2024-01-15T14:10:14;22.67;;;20.70;;
54897;SDS011;40800;52.704;6.398;2024-01-15T14:12:39;20.70;;;18.92;;
54897;SDS011;40800;52.704;6.398;2024-01-15T14:15:05;18.20;;;16.63;;
54897;SDS011;40800;52.704;6.398;2024-01-15T14:17:31;20.58;;;17.23;;
54897;SDS011;40800;52.704;6.398;2024-01-15T14:19:57;19.45;;;17.65;;
54897;SDS011;40800;52.704;6.398;2024-01-15T14:22:22;18.98;;;17.02;;
54897;SDS011;40800;52.704;6.398;2024-01-15T14:24:48;19.15;;;17.30;;
54897;SDS011;40800;52.704;6.398;2024-01-15T14:27:14;17.63;;;15.20;;
54897;SDS011;40800;52.704;6.398;2024-01-15T14:29:40;19.70;;;14.88;;
54897;SDS011;40800;52.704;6.398;2024-01-15T14:32:05;17.13;;;12.85;;
54897;SDS011;40800;52.704;6.398;2024-01-15T14:34:31;16.77;;;13.48;;
54897;SDS011;40800;52.704;6.398;2024-01-15T14:36:57;16.83;;;12.70;;
54897;SDS011;40800;52.704;6.398;2024-01-15T14:39:22;18.80;;;10.45;;
54897;SDS011;40800;52.704;6.398;2024-01-15T14:41:48;17.70;;;10.93;;